sensor_id;sensor_type;location;lat;lon;timestamp;pressure;altitude;pressure_sealevel;temperature;humidity
79463;BME280;68931;47.286;18.756;2023-08-24T00:00:09;100701.88;;;20.44;88.57
79463;BME280;68931;47.286;18.756;2023-08-24T00:00:42;100687.97;;;20.41;89.20
79463;BME280;68931;47.286;18.756;2023-08-24T00:01:14;100695.84;;;20.42;89.39
79463;BME280;68931;47.286;18.756;2023-08-24T00:01:48;100703.41;;;20.47;88.64
79463;BME280;68931;47.286;18.756;2023-08-24T00:02:20;100705.25;;;20.46;89.35
79463;BME280;68931;47.286;18.756;2023-08-24T00:02:52;100692.06;;;20.45;89.06
79463;BME280;68931;47.286;18.756;2023-08-24T00:03:24;100701.88;;;20.44;89.13
79463;BME280;68931;47.286;18.756;2023-08-24T00:03:56;100691.34;;;20.43;89.50
79463;BME280;68931;47.286;18.756;2023-08-24T00:04:28;100698.50;;;20.42;89.74
79463;BME280;68931;47.286;18.756;2023-08-24T00:05:00;100703.00;;;20.42;89.21
79463;BME280;68931;47.286;18.756;2023-08-24T00:05:33;100667.72;;;20.20;89.71
79463;BME280;68931;47.286;18.756;2023-08-24T00:06:06;100698.50;;;20.42;89.21
79463;BME280;68931;47.286;18.756;2023-08-24T00:06:38;100699.34;;;20.43;89.85
79463;BME280;68931;47.286;18.756;2023-08-24T00:07:10;100684.19;;;20.34;89.98
79463;BME280;68931;47.286;18.756;2023-08-24T00:07:42;100700.50;;;20.40;89.65
79463;BME280;68931;47.286;18.756;2023-08-24T00:08:14;100681.53;;;20.34;89.96
79463;BME280;68931;47.286;18.756;2023-08-24T00:08:45;100692.94;;;20.36;89.59
79463;BME280;68931;47.286;18.756;2023-08-24T00:09:19;100704.81;;;20.41;90.32
79463;BME280;68931;47.286;18.756;2023-08-24T00:09:53;100693.75;;;20.36;89.96
79463;BME280;68931;47.286;18.756;2023-08-24T00:10:25;100705.66;;;20.42;89.45
79463;BME280;68931;47.286;18.756;2023-08-24T00:10:57;100697.84;;;20.40;89.69
79463;BME280;68931;47.286;18.756;2023-08-24T00:11:29;100691.66;;;20.40;89.68
79463;BME280;68931;47.286;18.756;2023-08-24T00:12:02;100685.34;;;20.31;89.90
79463;BME280;68931;47.286;18.756;2023-08-24T00:12:34;100689.28;;;20.37;90.05
79463;BME280;68931;47.286;18.756;2023-08-24T00:13:07;100693.31;;;20.41;89.86
79463;BME280;68931;47.286;18.756;2023-08-24T00:13:39;100695.00;;;20.42;89.59
79463;BME280;68931;47.286;18.756;2023-08-24T00:14:13;100698.38;;;20.44;89.66
79463;BME280;68931;47.286;18.756;2023-08-24T00:14:45;100687.59;;;20.36;89.77
79463;BME280;68931;47.286;18.756;2023-08-24T00:15:17;100692.66;;;20.39;90.08
79463;BME280;68931;47.286;18.756;2023-08-24T00:15:49;100699.34;;;20.43;89.71
79463;BME280;68931;47.286;18.756;2023-08-24T00:16:21;100684.78;;;20.37;90.37
79463;BME280;68931;47.286;18.756;2023-08-24T00:16:53;100698.38;;;20.44;90.56
79463;BME280;68931;47.286;18.756;2023-08-24T00:17:25;100695.16;;;20.40;89.95
79463;BME280;68931;47.286;18.756;2023-08-24T00:18:00;100690.97;;;20.38;89.96
79463;BME280;68931;47.286;18.756;2023-08-24T00:18:32;100695.69;;;20.44;89.90
79463;BME280;68931;47.286;18.756;2023-08-24T00:19:04;100699.22;;;20.44;90.25
79463;BME280;68931;47.286;18.756;2023-08-24T00:19:36;100691.25;;;20.35;90.02
79463;BME280;68931;47.286;18.756;2023-08-24T00:20:08;100696.28;;;20.38;89.72
79463;BME280;68931;47.286;18.756;2023-08-24T00:20:42;100698.50;;;20.42;89.70
79463;BME280;68931;47.286;18.756;2023-08-24T00:21:15;100695.97;;;20.41;90.37
79463;BME280;68931;47.286;18.756;2023-08-24T00:21:54;100693.31;;;20.41;90.14
79463;BME280;68931;47.286;18.756;2023-08-24T00:22:26;100697.66;;;20.42;90.00
79463;BME280;68931;47.286;18.756;2023-08-24T00:22:58;100691.66;;;20.40;89.87
79463;BME280;68931;47.286;18.756;2023-08-24T00:23:30;100687.31;;;20.39;90.13
79463;BME280;68931;47.286;18.756;2023-08-24T00:24:03;100697.13;;;20.38;89.70
79463;BME280;68931;47.286;18.756;2023-08-24T00:24:35;100695.16;;;20.40;89.42
79463;BME280;68931;47.286;18.756;2023-08-24T00:25:08;100682.41;;;20.34;89.58
79463;BME280;68931;47.286;18.756;2023-08-24T00:25:40;100682.81;;;20.39;89.23
79463;BME280;68931;47.286;18.756;2023-08-24T00:26:15;100690.81;;;20.39;88.95
79463;BME280;68931;47.286;18.756;2023-08-24T00:26:50;100681.44;;;20.35;88.98
79463;BME280;68931;47.286;18.756;2023-08-24T00:27:22;100693.31;;;20.41;89.12
79463;BME280;68931;47.286;18.756;2023-08-24T00:27:54;100689.13;;;20.38;89.32
79463;BME280;68931;47.286;18.756;2023-08-24T00:28:26;100683.66;;;20.40;89.03
79463;BME280;68931;47.286;18.756;2023-08-24T00:28:58;100682.50;;;20.42;88.95
79463;BME280;68931;47.286;18.756;2023-08-24T00:29:30;100675.13;;;20.36;88.82
79463;BME280;68931;47.286;18.756;2023-08-24T00:30:03;100690.22;;;20.45;89.44
79463;BME280;68931;47.286;18.756;2023-08-24T00:30:36;100686.72;;;20.45;88.80
79463;BME280;68931;47.286;18.756;2023-08-24T00:31:09;100648.75;;;20.23;88.73
79463;BME280;68931;47.286;18.756;2023-08-24T00:31:41;100689.94;;;20.48;89.24
79463;BME280;68931;47.286;18.756;2023-08-24T00:32:13;100685.59;;;20.47;89.63
79463;BME280;68931;47.286;18.756;2023-08-24T00:32:45;100688.13;;;20.49;89.74
79463;BME280;68931;47.286;18.756;2023-08-24T00:33:17;100688.94;;;20.49;89.61
79463;BME280;68931;47.286;18.756;2023-08-24T00:33:49;100693.44;;;20.49;89.20
79463;BME280;68931;47.286;18.756;2023-08-24T00:34:22;100691.31;;;20.52;89.40
79463;BME280;68931;47.286;18.756;2023-08-24T00:34:55;100689.78;;;20.50;88.72
79463;BME280;68931;47.286;18.756;2023-08-24T00:35:27;100699.31;;;20.52;88.41
79463;BME280;68931;47.286;18.756;2023-08-24T00:36:00;100685.59;;;20.47;89.06
79463;BME280;68931;47.286;18.756;2023-08-24T00:36:32;100682.22;;;20.45;88.41
79463;BME280;68931;47.286;18.756;2023-08-24T00:37:05;100694.25;;;20.49;88.78
79463;BME280;68931;47.286;18.756;2023-08-24T00:37:40;100694.44;;;20.48;88.83
79463;BME280;68931;47.286;18.756;2023-08-24T00:38:13;100694.25;;;20.49;89.13
79463;BME280;68931;47.286;18.756;2023-08-24T00:38:45;100697.25;;;20.46;88.36
79463;BME280;68931;47.286;18.756;2023-08-24T00:39:18;100700.44;;;20.50;88.22
79463;BME280;68931;47.286;18.756;2023-08-24T00:39:50;100698.78;;;20.49;88.55
79463;BME280;68931;47.286;18.756;2023-08-24T00:40:23;100686.34;;;20.40;88.61
79463;BME280;68931;47.286;18.756;2023-08-24T00:40:56;100695.41;;;20.47;88.32
79463;BME280;68931;47.286;18.756;2023-08-24T00:41:30;100697.25;;;20.46;88.06
79463;BME280;68931;47.286;18.756;2023-08-24T00:42:02;100692.34;;;20.42;88.13
79463;BME280;68931;47.286;18.756;2023-08-24T00:43:11;100699.59;;;20.49;88.59
79463;BME280;68931;47.286;18.756;2023-08-24T00:43:46;100703.94;;;20.50;88.37
79463;BME280;68931;47.286;18.756;2023-08-24T00:44:21;100710.81;;;20.53;88.41
79463;BME280;68931;47.286;18.756;2023-08-24T00:44:53;100696.41;;;20.46;88.80
79463;BME280;68931;47.286;18.756;2023-08-24T00:45:25;100708.44;;;20.50;88.35
79463;BME280;68931;47.286;18.756;2023-08-24T00:46:01;100707.75;;;20.48;88.79
79463;BME280;68931;47.286;18.756;2023-08-24T00:46:34;100699.91;;;20.46;88.25
79463;BME280;68931;47.286;18.756;2023-08-24T00:47:10;100690.13;;;20.37;88.68
79463;BME280;68931;47.286;18.756;2023-08-24T00:47:44;100709.44;;;20.49;88.23
79463;BME280;68931;47.286;18.756;2023-08-24T00:48:19;100717.59;;;20.47;88.32
79463;BME280;68931;47.286;18.756;2023-08-24T00:48:51;100702.72;;;20.45;88.27
79463;BME280;68931;47.286;18.756;2023-08-24T00:49:23;100710.56;;;20.46;88.47
79463;BME280;68931;47.286;18.756;2023-08-24T00:49:55;100706.34;;;20.44;88.39
79463;BME280;68931;47.286;18.756;2023-08-24T00:50:27;100712.53;;;20.44;88.68
79463;BME280;68931;47.286;18.756;2023-08-24T00:51:00;100708.03;;;20.45;88.33
79463;BME280;68931;47.286;18.756;2023-08-24T00:51:33;100711.84;;;20.42;88.33
79463;BME280;68931;47.286;18.756;2023-08-24T00:52:06;100699.78;;;20.38;88.78
79463;BME280;68931;47.286;18.756;2023-08-24T00:52:40;100704.16;;;20.39;88.29
79463;BME280;68931;47.286;18.756;2023-08-24T00:53:13;100715.91;;;20.46;88.54
79463;BME280;68931;47.286;18.756;2023-08-24T00:53:45;100701.63;;;20.38;88.38
79463;BME280;68931;47.286;18.756;2023-08-24T00:54:18;100715.75;;;20.48;89.04
79463;BME280;68931;47.286;18.756;2023-08-24T00:54:50;100715.59;;;20.49;89.01
79463;BME280;68931;47.286;18.756;2023-08-24T00:55:22;100717.59;;;20.47;88.32
79463;BME280;68931;47.286;18.756;2023-08-24T00:55:54;100713.75;;;20.50;88.70
79463;BME280;68931;47.286;18.756;2023-08-24T00:56:26;100711.94;;;20.50;88.98
79463;BME280;68931;47.286;18.756;2023-08-24T00:56:59;100716.97;;;20.53;88.54
79463;BME280;68931;47.286;18.756;2023-08-24T00:57:31;100710.81;;;20.53;88.57
79463;BME280;68931;47.286;18.756;2023-08-24T00:58:04;100714.19;;;20.55;88.72
79463;BME280;68931;47.286;18.756;2023-08-24T00:58:41;100709.69;;;20.55;88.12
79463;BME280;68931;47.286;18.756;2023-08-24T00:59:13;100705.63;;;20.51;88.97
79463;BME280;68931;47.286;18.756;2023-08-24T00:59:45;100715.16;;;20.54;89.06
79463;BME280;68931;47.286;18.756;2023-08-24T01:00:18;100711.94;;;20.50;89.17
79463;BME280;68931;47.286;18.756;2023-08-24T01:00:54;100717.97;;;20.52;89.07
79463;BME280;68931;47.286;18.756;2023-08-24T01:01:27;100702.00;;;20.43;88.78
79463;BME280;68931;47.286;18.756;2023-08-24T01:02:00;100720.63;;;20.52;89.16
79463;BME280;68931;47.286;18.756;2023-08-24T01:02:34;100703.69;;;20.44;89.07
79463;BME280;68931;47.286;18.756;2023-08-24T01:03:06;100708.28;;;20.51;88.87
79463;BME280;68931;47.286;18.756;2023-08-24T01:03:38;100714.47;;;20.52;89.29
79463;BME280;68931;47.286;18.756;2023-08-24T01:04:11;100712.50;;;20.54;88.44
79463;BME280;68931;47.286;18.756;2023-08-24T01:05:36;100706.19;;;20.55;88.18
79463;BME280;68931;47.286;18.756;2023-08-24T01:06:08;100704.78;;;20.51;88.24
79463;BME280;68931;47.286;18.756;2023-08-24T01:06:40;100696.50;;;20.54;88.04
79463;BME280;68931;47.286;18.756;2023-08-24T01:07:12;100698.78;;;20.49;88.58
79463;BME280;68931;47.286;18.756;2023-08-24T01:07:45;100703.78;;;20.52;87.92
79463;BME280;68931;47.286;18.756;2023-08-24T01:08:17;100704.50;;;20.54;88.08
79463;BME280;68931;47.286;18.756;2023-08-24T01:08:50;100691.44;;;20.51;87.99
79463;BME280;68931;47.286;18.756;2023-08-24T01:09:22;100700.72;;;20.56;88.07
79463;BME280;68931;47.286;18.756;2023-08-24T01:09:54;100695.50;;;20.55;88.01
79463;BME280;68931;47.286;18.756;2023-08-24T01:10:36;100687.81;;;20.52;87.42
79463;BME280;68931;47.286;18.756;2023-08-24T01:12:23;100700.56;;;20.58;87.97
79463;BME280;68931;47.286;18.756;2023-08-24T01:13:06;100711.63;;;20.63;88.04
79463;BME280;68931;47.286;18.756;2023-08-24T01:14:03;100711.75;;;20.61;87.37
79463;BME280;68931;47.286;18.756;2023-08-24T01:14:54;100715.25;;;20.62;87.18
79463;BME280;68931;47.286;18.756;2023-08-24T01:16:16;100696.34;;;20.55;87.52
79463;BME280;68931;47.286;18.756;2023-08-24T01:16:53;100710.22;;;20.59;87.25
79463;BME280;68931;47.286;18.756;2023-08-24T01:17:30;100700.00;;;20.54;87.19
79463;BME280;68931;47.286;18.756;2023-08-24T01:18:10;100704.22;;;20.57;87.27
79463;BME280;68931;47.286;18.756;2023-08-24T01:18:43;100698.03;;;20.56;87.73
79463;BME280;68931;47.286;18.756;2023-08-24T01:19:25;100712.47;;;20.63;87.06
79463;BME280;68931;47.286;18.756;2023-08-24T01:20:02;100707.97;;;20.64;87.05
79463;BME280;68931;47.286;18.756;2023-08-24T01:20:37;100694.53;;;20.56;87.81
79463;BME280;68931;47.286;18.756;2023-08-24T01:21:12;100701.22;;;20.60;87.38
79463;BME280;68931;47.286;18.756;2023-08-24T01:21:45;100704.75;;;20.60;87.44
79463;BME280;68931;47.286;18.756;2023-08-24T01:22:32;100695.50;;;20.55;87.40
79463;BME280;68931;47.286;18.756;2023-08-24T01:23:45;100709.09;;;20.61;87.28
79463;BME280;68931;47.286;18.756;2023-08-24T01:24:32;100700.09;;;20.62;87.68
79463;BME280;68931;47.286;18.756;2023-08-24T01:25:20;100694.06;;;20.60;87.32
79463;BME280;68931;47.286;18.756;2023-08-24T01:26:37;100680.50;;;20.54;88.18
79463;BME280;68931;47.286;18.756;2023-08-24T01:27:11;100698.56;;;20.60;87.65
79463;BME280;68931;47.286;18.756;2023-08-24T01:27:45;100667.69;;;20.40;87.82
79463;BME280;68931;47.286;18.756;2023-08-24T01:28:20;100692.16;;;20.53;87.75
79463;BME280;68931;47.286;18.756;2023-08-24T01:28:53;100683.78;;;20.48;87.78
79463;BME280;68931;47.286;18.756;2023-08-24T01:29:26;100691.03;;;20.55;87.47
79463;BME280;68931;47.286;18.756;2023-08-24T01:29:58;100708.25;;;20.61;87.69
79463;BME280;68931;47.286;18.756;2023-08-24T01:30:32;100700.72;;;20.56;88.46
79463;BME280;68931;47.286;18.756;2023-08-24T01:31:05;100699.56;;;20.59;87.86
79463;BME280;68931;47.286;18.756;2023-08-24T01:31:40;100694.81;;;20.53;88.15
79463;BME280;68931;47.286;18.756;2023-08-24T01:32:12;100687.94;;;20.50;88.62
79463;BME280;68931;47.286;18.756;2023-08-24T01:32:44;100706.88;;;20.57;88.62
79463;BME280;68931;47.286;18.756;2023-08-24T01:33:16;100703.38;;;20.56;87.85
79463;BME280;68931;47.286;18.756;2023-08-24T01:33:48;100699.03;;;20.55;88.48
79463;BME280;68931;47.286;18.756;2023-08-24T01:34:19;100698.31;;;20.53;88.29
79463;BME280;68931;47.286;18.756;2023-08-24T01:34:51;100691.06;;;20.46;87.98
79463;BME280;68931;47.286;18.756;2023-08-24T01:35:23;100694.25;;;20.49;88.42
79463;BME280;68931;47.286;18.756;2023-08-24T01:35:55;100701.44;;;20.49;88.30
79463;BME280;68931;47.286;18.756;2023-08-24T01:36:27;100705.38;;;20.45;88.40
79463;BME280;68931;47.286;18.756;2023-08-24T01:36:59;100698.81;;;20.39;88.39
79463;BME280;68931;47.286;18.756;2023-08-24T01:37:35;100698.97;;;20.38;88.68
79463;BME280;68931;47.286;18.756;2023-08-24T01:38:10;100701.31;;;20.41;88.66
79463;BME280;68931;47.286;18.756;2023-08-24T01:38:54;100709.03;;;20.44;88.74
79463;BME280;68931;47.286;18.756;2023-08-24T01:40:26;100699.66;;;20.40;88.54
79463;BME280;68931;47.286;18.756;2023-08-24T01:41:09;100703.97;;;20.41;89.15
79463;BME280;68931;47.286;18.756;2023-08-24T01:41:47;100697.41;;;20.35;88.96
79463;BME280;68931;47.286;18.756;2023-08-24T01:42:26;100697.53;;;20.34;88.85
79463;BME280;68931;47.286;18.756;2023-08-24T01:43:06;100688.44;;;20.26;88.94
79463;BME280;68931;47.286;18.756;2023-08-24T01:43:39;100695.16;;;20.31;89.04
79463;BME280;68931;47.286;18.756;2023-08-24T01:44:18;100688.56;;;20.25;89.17
79463;BME280;68931;47.286;18.756;2023-08-24T01:44:56;100695.44;;;20.27;89.12
79463;BME280;68931;47.286;18.756;2023-08-24T01:45:32;100705.97;;;20.29;88.95
79463;BME280;68931;47.286;18.756;2023-08-24T01:46:07;100696.16;;;20.29;89.53
79463;BME280;68931;47.286;18.756;2023-08-24T01:46:42;100697.28;;;20.27;89.33
79463;BME280;68931;47.286;18.756;2023-08-24T01:47:16;100692.78;;;20.27;89.61
79463;BME280;68931;47.286;18.756;2023-08-24T01:47:50;100696.44;;;20.26;89.43
79463;BME280;68931;47.286;18.756;2023-08-24T01:48:24;100701.75;;;20.26;90.07
79463;BME280;68931;47.286;18.756;2023-08-24T01:48:57;100697.13;;;20.28;90.17
79463;BME280;68931;47.286;18.756;2023-08-24T01:49:32;100696.16;;;20.29;89.76
79463;BME280;68931;47.286;18.756;2023-08-24T01:50:06;100692.78;;;20.27;89.74
79463;BME280;68931;47.286;18.756;2023-08-24T01:50:38;100697.41;;;20.25;89.96
79463;BME280;68931;47.286;18.756;2023-08-24T01:51:11;100693.38;;;20.21;89.80
79463;BME280;68931;47.286;18.756;2023-08-24T01:51:45;100682.44;;;20.15;90.35
79463;BME280;68931;47.286;18.756;2023-08-24T01:52:17;100696.31;;;20.18;90.41
79463;BME280;68931;47.286;18.756;2023-08-24T01:52:50;100688.19;;;20.20;90.17
79463;BME280;68931;47.286;18.756;2023-08-24T01:53:23;100699.97;;;20.17;90.25
79463;BME280;68931;47.286;18.756;2023-08-24T01:53:56;100700.66;;;20.19;90.13
79463;BME280;68931;47.286;18.756;2023-08-24T01:54:30;100698.28;;;20.16;89.78
79463;BME280;68931;47.286;18.756;2023-08-24T01:55:03;100704.31;;;20.18;89.88
79463;BME280;68931;47.286;18.756;2023-08-24T01:55:35;100696.91;;;20.12;90.32
79463;BME280;68931;47.286;18.756;2023-08-24T01:56:11;100703.75;;;20.15;90.31
79463;BME280;68931;47.286;18.756;2023-08-24T01:56:43;100690.88;;;20.10;90.04
79463;BME280;68931;47.286;18.756;2023-08-24T01:57:15;100701.09;;;20.15;90.66
79463;BME280;68931;47.286;18.756;2023-08-24T01:57:48;100693.25;;;20.13;90.10
79463;BME280;68931;47.286;18.756;2023-08-24T01:58:21;100694.38;;;20.11;90.81
79463;BME280;68931;47.286;18.756;2023-08-24T01:58:55;100704.75;;;20.14;91.07
79463;BME280;68931;47.286;18.756;2023-08-24T01:59:28;100697.06;;;20.11;90.54
79463;BME280;68931;47.286;18.756;2023-08-24T02:00:00;100704.47;;;20.07;90.35
79463;BME280;68931;47.286;18.756;2023-08-24T02:00:32;100703.22;;;20.11;90.62
79463;BME280;68931;47.286;18.756;2023-08-24T02:01:05;100699.72;;;20.11;90.76
79463;BME280;68931;47.286;18.756;2023-08-24T02:01:41;100702.38;;;20.11;91.17
79463;BME280;68931;47.286;18.756;2023-08-24T02:02:13;100703.34;;;20.10;91.17
79463;BME280;68931;47.286;18.756;2023-08-24T02:02:45;100702.50;;;20.09;90.63
79463;BME280;68931;47.286;18.756;2023-08-24T02:03:17;100696.63;;;20.06;90.40
79463;BME280;68931;47.286;18.756;2023-08-24T02:03:49;100702.50;;;20.09;90.68
79463;BME280;68931;47.286;18.756;2023-08-24T02:04:21;100693.44;;;20.02;90.53
79463;BME280;68931;47.286;18.756;2023-08-24T02:04:53;100695.50;;;20.08;90.36
79463;BME280;68931;47.286;18.756;2023-08-24T02:05:25;100702.66;;;20.08;90.88
79463;BME280;68931;47.286;18.756;2023-08-24T02:05:59;100698.47;;;20.05;90.99
79463;BME280;68931;47.286;18.756;2023-08-24T02:06:31;100707.00;;;20.09;90.75
79463;BME280;68931;47.286;18.756;2023-08-24T02:07:03;100702.78;;;20.06;90.42
79463;BME280;68931;47.286;18.756;2023-08-24T02:07:35;100703.34;;;20.10;90.69
79463;BME280;68931;47.286;18.756;2023-08-24T02:08:07;100702.50;;;20.09;90.79
79463;BME280;68931;47.286;18.756;2023-08-24T02:08:39;100692.44;;;20.03;91.23
79463;BME280;68931;47.286;18.756;2023-08-24T02:09:11;100699.16;;;20.07;90.71
79463;BME280;68931;47.286;18.756;2023-08-24T02:09:43;100692.97;;;20.07;90.67
79463;BME280;68931;47.286;18.756;2023-08-24T02:10:15;100705.44;;;20.06;91.20
79463;BME280;68931;47.286;18.756;2023-08-24T02:10:47;100694.66;;;20.08;91.43
79463;BME280;68931;47.286;18.756;2023-08-24T02:11:19;100705.31;;;20.08;91.09
79463;BME280;68931;47.286;18.756;2023-08-24T02:11:51;100693.44;;;20.02;91.08
79463;BME280;68931;47.286;18.756;2023-08-24T02:12:23;100699.16;;;20.07;90.94
79463;BME280;68931;47.286;18.756;2023-08-24T02:12:55;100687.25;;;20.02;90.60
79463;BME280;68931;47.286;18.756;2023-08-24T02:13:27;100700.00;;;20.08;91.08
79463;BME280;68931;47.286;18.756;2023-08-24T02:14:00;100687.13;;;20.03;91.19
79463;BME280;68931;47.286;18.756;2023-08-24T02:14:32;100694.97;;;20.05;91.04
79463;BME280;68931;47.286;18.756;2023-08-24T02:15:04;100694.13;;;20.04;91.03
79463;BME280;68931;47.286;18.756;2023-08-24T02:15:37;100695.09;;;20.03;91.22
79463;BME280;68931;47.286;18.756;2023-08-24T02:16:11;100693.56;;;20.01;91.04
79463;BME280;68931;47.286;18.756;2023-08-24T02:16:44;100690.91;;;20.01;91.48
79463;BME280;68931;47.286;18.756;2023-08-24T02:17:34;100696.78;;;20.04;91.73
79463;BME280;68931;47.286;18.756;2023-08-24T02:18:07;100695.94;;;20.04;91.52
79463;BME280;68931;47.286;18.756;2023-08-24T02:18:39;100698.06;;;20.00;91.77
79463;BME280;68931;47.286;18.756;2023-08-24T02:19:11;100696.38;;;19.99;91.17
79463;BME280;68931;47.286;18.756;2023-08-24T02:19:43;100706.47;;;20.05;91.90
79463;BME280;68931;47.286;18.756;2023-08-24T02:20:17;100701.13;;;20.05;91.27
79463;BME280;68931;47.286;18.756;2023-08-24T02:20:49;100695.25;;;20.02;91.45
79463;BME280;68931;47.286;18.756;2023-08-24T02:21:21;100702.13;;;20.04;91.01
79463;BME280;68931;47.286;18.756;2023-08-24T02:21:56;100688.69;;;19.96;91.38
79463;BME280;68931;47.286;18.756;2023-08-24T02:22:29;100694.13;;;20.04;91.02
79463;BME280;68931;47.286;18.756;2023-08-24T02:23:01;100694.41;;;20.01;91.29
79463;BME280;68931;47.286;18.756;2023-08-24T02:23:33;100693.56;;;20.01;91.15
79463;BME280;68931;47.286;18.756;2023-08-24T02:24:06;100701.41;;;20.02;91.37
79463;BME280;68931;47.286;18.756;2023-08-24T02:24:38;100693.56;;;20.01;91.42
79463;BME280;68931;47.286;18.756;2023-08-24T02:25:11;100682.50;;;19.96;90.65
79463;BME280;68931;47.286;18.756;2023-08-24T02:25:45;100696.94;;;20.03;90.59
79463;BME280;68931;47.286;18.756;2023-08-24T02:26:17;100698.63;;;20.04;91.06
79463;BME280;68931;47.286;18.756;2023-08-24T02:26:49;100696.09;;;20.02;91.16
79463;BME280;68931;47.286;18.756;2023-08-24T02:27:21;100681.66;;;19.95;91.12
79463;BME280;68931;47.286;18.756;2023-08-24T02:27:53;100698.88;;;20.01;90.81
79463;BME280;68931;47.286;18.756;2023-08-24T02:28:25;100698.63;;;20.04;91.31
79463;BME280;68931;47.286;18.756;2023-08-24T02:28:59;100689.34;;;19.98;91.06
79463;BME280;68931;47.286;18.756;2023-08-24T02:29:31;100687.25;;;20.02;90.98
79463;BME280;68931;47.286;18.756;2023-08-24T02:30:03;100682.50;;;19.96;91.14
79463;BME280;68931;47.286;18.756;2023-08-24T02:30:38;100697.06;;;20.01;91.28
79463;BME280;68931;47.286;18.756;2023-08-24T02:31:11;100680.84;;;19.95;90.60
79463;BME280;68931;47.286;18.756;2023-08-24T02:31:43;100688.50;;;19.98;90.83
79463;BME280;68931;47.286;18.756;2023-08-24T02:32:15;100692.03;;;19.98;90.57
79463;BME280;68931;47.286;18.756;2023-08-24T02:32:46;100684.75;;;19.90;90.55
79463;BME280;68931;47.286;18.756;2023-08-24T02:33:19;100689.66;;;19.95;91.01
79463;BME280;68931;47.286;18.756;2023-08-24T02:33:51;100691.34;;;19.96;90.91
79463;BME280;68931;47.286;18.756;2023-08-24T02:34:23;100690.66;;;19.94;91.18
79463;BME280;68931;47.286;18.756;2023-08-24T02:34:55;100689.81;;;19.94;91.25
79463;BME280;68931;47.286;18.756;2023-08-24T02:35:27;100699.34;;;19.96;90.92
79463;BME280;68931;47.286;18.756;2023-08-24T02:35:59;100701.16;;;19.96;90.92
79463;BME280;68931;47.286;18.756;2023-08-24T02:36:34;100688.25;;;19.91;90.99
79463;BME280;68931;47.286;18.756;2023-08-24T02:37:06;100691.75;;;19.91;91.87
79463;BME280;68931;47.286;18.756;2023-08-24T02:37:38;100695.00;;;19.85;91.20
79463;BME280;68931;47.286;18.756;2023-08-24T02:38:10;100695.00;;;19.85;91.53
79463;BME280;68931;47.286;18.756;2023-08-24T02:38:42;100692.75;;;19.81;91.56
79463;BME280;68931;47.286;18.756;2023-08-24T02:39:14;100678.59;;;19.71;91.58
79463;BME280;68931;47.286;18.756;2023-08-24T02:39:46;100690.53;;;19.76;91.59
79463;BME280;68931;47.286;18.756;2023-08-24T02:40:18;100688.97;;;19.74;91.57
79463;BME280;68931;47.286;18.756;2023-08-24T02:41:06;100679.31;;;19.73;91.34
79463;BME280;68931;47.286;18.756;2023-08-24T02:41:42;100699.22;;;19.78;91.51
79463;BME280;68931;47.286;18.756;2023-08-24T02:42:14;100684.63;;;19.73;91.80
79463;BME280;68931;47.286;18.756;2023-08-24T02:42:46;100700.06;;;19.79;91.29
79463;BME280;68931;47.286;18.756;2023-08-24T02:43:18;100696.56;;;19.78;91.51
79463;BME280;68931;47.286;18.756;2023-08-24T02:43:50;100698.91;;;19.81;91.36
79463;BME280;68931;47.286;18.756;2023-08-24T02:44:22;100695.28;;;19.82;91.86
79463;BME280;68931;47.286;18.756;2023-08-24T02:44:54;100662.81;;;19.60;91.67
79463;BME280;68931;47.286;18.756;2023-08-24T02:45:26;100701.44;;;19.83;91.61
79463;BME280;68931;47.286;18.756;2023-08-24T02:46:02;100698.09;;;19.81;91.51
79463;BME280;68931;47.286;18.756;2023-08-24T02:46:36;100693.72;;;19.80;91.39
79463;BME280;68931;47.286;18.756;2023-08-24T02:47:09;100701.44;;;19.83;91.08
79463;BME280;68931;47.286;18.756;2023-08-24T02:47:41;100706.63;;;19.84;91.46
79463;BME280;68931;47.286;18.756;2023-08-24T02:48:12;100698.50;;;19.86;91.55
79463;BME280;68931;47.286;18.756;2023-08-24T02:48:44;100699.34;;;19.86;91.29
79463;BME280;68931;47.286;18.756;2023-08-24T02:49:20;100700.19;;;19.87;90.98
79463;BME280;68931;47.286;18.756;2023-08-24T02:49:52;100700.88;;;19.89;91.28
79463;BME280;68931;47.286;18.756;2023-08-24T02:50:24;100701.84;;;19.88;90.66
79463;BME280;68931;47.286;18.756;2023-08-24T02:51:00;100709.69;;;19.89;90.95
79463;BME280;68931;47.286;18.756;2023-08-24T02:51:36;100709.56;;;19.91;90.74
79463;BME280;68931;47.286;18.756;2023-08-24T02:52:08;100695.84;;;19.86;90.84
79463;BME280;68931;47.286;18.756;2023-08-24T02:52:40;100708.84;;;19.89;90.77
79463;BME280;68931;47.286;18.756;2023-08-24T02:53:12;100709.03;;;19.87;90.77
79463;BME280;68931;47.286;18.756;2023-08-24T02:53:44;100708.19;;;19.87;90.73
79463;BME280;68931;47.286;18.756;2023-08-24T02:54:19;100684.09;;;19.69;91.37
79463;BME280;68931;47.286;18.756;2023-08-24T02:54:51;100708.47;;;19.84;91.20
79463;BME280;68931;47.286;18.756;2023-08-24T02:55:25;100675.69;;;19.64;91.04
79463;BME280;68931;47.286;18.756;2023-08-24T02:55:58;100709.56;;;19.81;91.09
79463;BME280;68931;47.286;18.756;2023-08-24T02:56:37;100703.72;;;19.78;91.06
79463;BME280;68931;47.286;18.756;2023-08-24T02:57:09;100712.22;;;19.81;90.73
79463;BME280;68931;47.286;18.756;2023-08-24T02:57:41;100709.72;;;19.80;90.87
79463;BME280;68931;47.286;18.756;2023-08-24T02:58:12;100721.38;;;19.79;91.09
79463;BME280;68931;47.286;18.756;2023-08-24T02:58:44;100720.34;;;19.80;91.34